sensor_id;sensor_type;location;lat;lon;timestamp;temperature;humidity
61386;DHT22;47256;18.904;-99.054;2023-05-10T20:09:42;33.60;51.10
61386;DHT22;47256;18.904;-99.054;2023-05-10T20:12:10;33.50;52.60
61386;DHT22;47256;18.904;-99.054;2023-05-10T20:14:38;33.40;52.30
61386;DHT22;47256;18.904;-99.054;2023-05-10T20:17:05;33.20;54.80
61386;DHT22;47256;18.904;-99.054;2023-05-10T20:19:32;33.20;54.50
61386;DHT22;47256;18.904;-99.054;2023-05-10T20:21:59;33.20;53.80
61386;DHT22;47256;18.904;-99.054;2023-05-10T20:24:28;33.10;52.80
61386;DHT22;47256;18.904;-99.054;2023-05-10T20:26:55;33.10;55.30
61386;DHT22;47256;18.904;-99.054;2023-05-10T20:29:22;33.00;55.40
61386;DHT22;47256;18.904;-99.054;2023-05-10T20:31:49;33.00;54.10
61386;DHT22;47256;18.904;-99.054;2023-05-10T20:34:17;32.90;54.70
61386;DHT22;47256;18.904;-99.054;2023-05-10T20:36:44;32.90;55.20
61386;DHT22;47256;18.904;-99.054;2023-05-10T20:39:11;32.80;55.00
61386;DHT22;47256;18.904;-99.054;2023-05-10T20:41:39;32.80;55.80
61386;DHT22;47256;18.904;-99.054;2023-05-10T20:44:07;32.70;55.00
61386;DHT22;47256;18.904;-99.054;2023-05-10T20:46:35;32.70;55.00
61386;DHT22;47256;18.904;-99.054;2023-05-10T20:49:02;32.70;55.30
61386;DHT22;47256;18.904;-99.054;2023-05-10T20:51:30;32.60;55.60
61386;DHT22;47256;18.904;-99.054;2023-05-10T20:53:58;32.60;55.80
61386;DHT22;47256;18.904;-99.054;2023-05-10T20:56:30;32.60;55.70
61386;DHT22;47256;18.904;-99.054;2023-05-10T20:58:57;32.60;55.80
61386;DHT22;47256;18.904;-99.054;2023-05-10T21:01:24;32.60;55.80
61386;DHT22;47256;18.904;-99.054;2023-05-10T21:03:53;32.70;56.30
61386;DHT22;47256;18.904;-99.054;2023-05-10T21:06:20;32.70;55.80
61386;DHT22;47256;18.904;-99.054;2023-05-10T21:08:47;32.80;55.60
61386;DHT22;47256;18.904;-99.054;2023-05-10T21:11:15;33.00;56.80
61386;DHT22;47256;18.904;-99.054;2023-05-10T21:13:42;33.30;57.10
61386;DHT22;47256;18.904;-99.054;2023-05-10T21:16:09;33.50;56.20
61386;DHT22;47256;18.904;-99.054;2023-05-10T21:18:36;33.70;53.60
61386;DHT22;47256;18.904;-99.054;2023-05-10T21:21:03;33.90;55.10
61386;DHT22;47256;18.904;-99.054;2023-05-10T21:23:30;33.90;53.10
61386;DHT22;47256;18.904;-99.054;2023-05-10T21:25:58;33.90;52.40
61386;DHT22;47256;18.904;-99.054;2023-05-10T21:28:26;33.80;54.00
61386;DHT22;47256;18.904;-99.054;2023-05-10T21:30:53;33.80;51.60
61386;DHT22;47256;18.904;-99.054;2023-05-10T21:33:20;33.70;50.90
61386;DHT22;47256;18.904;-99.054;2023-05-10T21:35:47;33.60;50.70
61386;DHT22;47256;18.904;-99.054;2023-05-10T21:38:14;33.70;51.90
61386;DHT22;47256;18.904;-99.054;2023-05-10T21:40:41;33.80;52.40
61386;DHT22;47256;18.904;-99.054;2023-05-10T21:43:09;33.80;51.00
61386;DHT22;47256;18.904;-99.054;2023-05-10T21:45:38;33.70;52.20
61386;DHT22;47256;18.904;-99.054;2023-05-10T21:48:06;33.60;50.60
61386;DHT22;47256;18.904;-99.054;2023-05-10T21:50:33;33.40;51.80
61386;DHT22;47256;18.904;-99.054;2023-05-10T21:53:00;33.40;52.80
61386;DHT22;47256;18.904;-99.054;2023-05-10T21:55:28;33.40;52.60
61386;DHT22;47256;18.904;-99.054;2023-05-10T21:57:55;33.50;53.10
61386;DHT22;47256;18.904;-99.054;2023-05-10T22:00:23;33.60;53.50
61386;DHT22;47256;18.904;-99.054;2023-05-10T22:02:50;33.50;52.50
61386;DHT22;47256;18.904;-99.054;2023-05-10T22:05:17;33.50;51.50
61386;DHT22;47256;18.904;-99.054;2023-05-10T22:07:46;33.40;52.90
61386;DHT22;47256;18.904;-99.054;2023-05-10T22:10:13;33.30;53.20
61386;DHT22;47256;18.904;-99.054;2023-05-10T22:12:40;33.20;54.10
61386;DHT22;47256;18.904;-99.054;2023-05-10T22:15:08;33.10;51.30
61386;DHT22;47256;18.904;-99.054;2023-05-10T22:17:39;32.90;51.20
61386;DHT22;47256;18.904;-99.054;2023-05-10T22:20:07;32.80;50.80
61386;DHT22;47256;18.904;-99.054;2023-05-10T22:22:35;32.70;50.80
61386;DHT22;47256;18.904;-99.054;2023-05-10T22:25:03;32.70;50.60
61386;DHT22;47256;18.904;-99.054;2023-05-10T22:27:30;32.60;51.20
61386;DHT22;47256;18.904;-99.054;2023-05-10T22:29:57;32.60;50.10
61386;DHT22;47256;18.904;-99.054;2023-05-10T22:32:24;32.40;50.30
61386;DHT22;47256;18.904;-99.054;2023-05-10T22:34:52;32.40;50.60
61386;DHT22;47256;18.904;-99.054;2023-05-10T22:37:19;32.30;49.50
61386;DHT22;47256;18.904;-99.054;2023-05-10T22:39:47;32.20;50.10
61386;DHT22;47256;18.904;-99.054;2023-05-10T22:42:14;32.10;50.50
61386;DHT22;47256;18.904;-99.054;2023-05-10T22:44:42;32.00;48.30
61386;DHT22;47256;18.904;-99.054;2023-05-10T22:47:09;31.90;46.20
61386;DHT22;47256;18.904;-99.054;2023-05-10T22:49:37;31.70;46.60
61386;DHT22;47256;18.904;-99.054;2023-05-10T22:52:04;31.40;48.20
61386;DHT22;47256;18.904;-99.054;2023-05-10T22:54:31;31.10;49.30
61386;DHT22;47256;18.904;-99.054;2023-05-10T22:56:58;30.90;50.40
61386;DHT22;47256;18.904;-99.054;2023-05-10T22:59:26;30.70;51.20
61386;DHT22;47256;18.904;-99.054;2023-05-10T23:01:54;30.60;51.50
61386;DHT22;47256;18.904;-99.054;2023-05-10T23:04:21;30.40;52.00
61386;DHT22;47256;18.904;-99.054;2023-05-10T23:06:48;30.20;52.30
61386;DHT22;47256;18.904;-99.054;2023-05-10T23:09:16;30.10;52.80
61386;DHT22;47256;18.904;-99.054;2023-05-10T23:11:45;30.00;54.10
61386;DHT22;47256;18.904;-99.054;2023-05-10T23:14:12;29.90;53.90
61386;DHT22;47256;18.904;-99.054;2023-05-10T23:16:39;29.90;53.20
61386;DHT22;47256;18.904;-99.054;2023-05-10T23:19:07;29.80;51.50
61386;DHT22;47256;18.904;-99.054;2023-05-10T23:21:35;29.70;50.90
61386;DHT22;47256;18.904;-99.054;2023-05-10T23:24:03;29.60;53.40
61386;DHT22;47256;18.904;-99.054;2023-05-10T23:26:30;29.10;61.00
61386;DHT22;47256;18.904;-99.054;2023-05-10T23:28:59;28.40;64.80
61386;DHT22;47256;18.904;-99.054;2023-05-10T23:31:27;27.90;67.10
61386;DHT22;47256;18.904;-99.054;2023-05-10T23:33:54;27.60;69.20
61386;DHT22;47256;18.904;-99.054;2023-05-10T23:36:21;27.00;70.20
61386;DHT22;47256;18.904;-99.054;2023-05-10T23:38:48;26.60;71.90
61386;DHT22;47256;18.904;-99.054;2023-05-10T23:41:15;26.30;70.90
61386;DHT22;47256;18.904;-99.054;2023-05-10T23:43:42;26.30;71.60
61386;DHT22;47256;18.904;-99.054;2023-05-10T23:46:10;26.50;70.50
61386;DHT22;47256;18.904;-99.054;2023-05-10T23:48:37;26.70;71.10
61386;DHT22;47256;18.904;-99.054;2023-05-10T23:51:04;26.90;71.50
61386;DHT22;47256;18.904;-99.054;2023-05-10T23:53:31;27.10;70.80
61386;DHT22;47256;18.904;-99.054;2023-05-10T23:55:58;27.30;71.40
61386;DHT22;47256;18.904;-99.054;2023-05-10T23:58:25;27.50;70.80
